Terminal Aerodrome Forecast
Issued by NWS

Current Version | Previous Version | Graphics & Text | Print | Product List | Glossary On
Versions: 1 2 3 4 5 6 7 8 9 10 11 12 13 14 15 16 17 18 19 20 21 22
254
FTUS41 KRLX 211739 AAB
TAFCKB
TAF AMD
KCKB 211739Z 2118/2218 20009G15KT P6SM SHRA VCTS SCT035CB BKN050
     FM212000 20007KT 4SM SHRA VCTS OVC050CB
     FM212300 19007G15KT 5SM SHRA OVC025
     FM220100 18005KT 6SM SHRA BR OVC050
     FM221200 24005KT P6SM VCSH BKN015
     FM221600 26006KT P6SM BKN035=

USA.gov is the U.S. government's official web portal to all federal, state and local government web resources and services.